createdAt,value
2023-02-06T00:00:39.382Z,98778.75
2023-02-06T00:01:46.101Z,98773.00
2023-02-06T00:02:47.982Z,98775.72
2023-02-06T00:03:51.871Z,98774.78
2023-02-06T00:04:53.820Z,98781.63
2023-02-06T00:05:57.043Z,98785.97
2023-02-06T00:06:58.964Z,98784.38
2023-02-06T00:08:00.902Z,98788.75
2023-02-06T00:09:03.546Z,98789.72
2023-02-06T00:10:05.762Z,98784.09
2023-02-06T00:11:09.211Z,98797.75
2023-02-06T00:12:11.913Z,98790.16
2023-02-06T00:13:13.730Z,98792.09
2023-02-06T00:14:15.747Z,98789.81
2023-02-06T00:15:17.631Z,98794.91
2023-02-06T00:16:21.055Z,98796.53
2023-02-06T00:17:22.988Z,98794.91
2023-02-06T00:18:24.844Z,98789.84
2023-02-06T00:19:26.772Z,98798.22
2023-02-06T00:20:28.684Z,98789.38
2023-02-06T00:21:31.200Z,98785.69
2023-02-06T00:22:33.652Z,98788.94
2023-02-06T00:23:35.539Z,98789.75
2023-02-06T00:24:37.431Z,98796.00
2023-02-06T00:25:39.440Z,98801.13
2023-02-06T00:26:41.263Z,98803.81
2023-02-06T00:27:43.304Z,98797.03
2023-02-06T00:28:46.028Z,98794.50
2023-02-06T00:29:47.882Z,98795.19
2023-02-06T00:30:49.998Z,98789.47
2023-02-06T00:31:51.872Z,98790.31
2023-02-06T00:32:53.735Z,98791.13
2023-02-06T00:33:55.595Z,98785.06
2023-02-06T00:34:57.445Z,98794.09
2023-02-06T00:35:59.404Z,98804.25
2023-02-06T00:37:01.252Z,98799.81
2023-02-06T00:38:03.175Z,98805.56
2023-02-06T00:39:05.016Z,98795.97
2023-02-06T00:40:08.289Z,98793.41
2023-02-06T00:41:10.276Z,98793.19
2023-02-06T00:42:12.113Z,98792.31
2023-02-06T00:43:14.264Z,98796.63
2023-02-06T00:44:16.097Z,98797.44
2023-02-06T00:45:17.909Z,98801.66
2023-02-06T00:46:19.898Z,98798.34
2023-02-06T00:47:21.785Z,98797.59
2023-02-06T00:48:24.441Z,98802.69
2023-02-06T00:49:26.245Z,98805.31
2023-02-06T00:50:28.118Z,98807.09
2023-02-06T00:51:30.584Z,98806.19
2023-02-06T00:52:32.455Z,98808.66
2023-02-06T00:53:34.365Z,98812.81
2023-02-06T00:54:36.307Z,98814.41
2023-02-06T00:55:38.230Z,98817.84
2023-02-06T00:56:40.166Z,98816.47
2023-02-06T00:57:41.999Z,98818.19
2023-02-06T00:58:43.945Z,98818.44
2023-02-06T00:59:45.836Z,98818.72
2023-02-06T01:00:47.689Z,98820.66
2023-02-06T01:01:49.673Z,98819.06
2023-02-06T01:02:51.604Z,98820.84
2023-02-06T01:03:53.623Z,98819.38
2023-02-06T01:04:55.490Z,98822.69
2023-02-06T01:05:57.466Z,98820.16
2023-02-06T01:06:59.394Z,98821.03
2023-02-06T01:08:02.829Z,98821.72
2023-02-06T01:09:06.165Z,98821.69
2023-02-06T01:10:09.076Z,98815.09
2023-02-06T01:11:12.451Z,98821.09
2023-02-06T01:12:14.351Z,98816.94
2023-02-06T01:13:16.221Z,98814.47
2023-02-06T01:14:18.086Z,98816.84
2023-02-06T01:15:20.072Z,98813.31
2023-02-06T01:16:24.129Z,98816.56
2023-02-06T01:17:26.066Z,98820.72
2023-02-06T01:18:27.960Z,98813.75
2023-02-06T01:19:29.777Z,98817.84
2023-02-06T01:20:32.113Z,98812.72
2023-02-06T01:21:33.966Z,98811.81
2023-02-06T01:22:36.470Z,98812.59
2023-02-06T01:23:39.866Z,98813.59
2023-02-06T01:24:41.713Z,98819.88
2023-02-06T01:25:43.508Z,98819.28
2023-02-06T01:26:45.532Z,98812.88
2023-02-06T01:27:47.370Z,98823.06
2023-02-06T01:28:49.654Z,98823.97
2023-02-06T01:29:51.457Z,98822.56
2023-02-06T01:30:55.004Z,98822.25
2023-02-06T01:31:56.846Z,98825.69
2023-02-06T01:32:58.800Z,98825.63
2023-02-06T01:34:01.229Z,98829.09
2023-02-06T01:35:03.078Z,98826.28
2023-02-06T01:36:05.072Z,98821.19
2023-02-06T01:37:06.914Z,98814.16
2023-02-06T01:38:08.787Z,98818.28
2023-02-06T01:39:10.891Z,98823.03
2023-02-06T01:40:15.223Z,98818.63
2023-02-06T01:41:18.131Z,98821.84
2023-02-06T01:42:20.041Z,98819.13
2023-02-06T01:43:28.486Z,98807.84
2023-02-06T01:44:31.315Z,98801.00
2023-02-06T01:45:36.360Z,98801.00
2023-02-06T01:46:39.734Z,98800.19
2023-02-06T01:47:41.758Z,98790.03
2023-02-06T01:48:46.731Z,98792.66
2023-02-06T01:49:50.265Z,98795.19
2023-02-06T01:50:54.152Z,98797.94
2023-02-06T01:51:57.923Z,98807.25
2023-02-06T01:53:00.312Z,98809.69
2023-02-06T01:54:04.160Z,98806.09
2023-02-06T01:55:06.246Z,98797.41
2023-02-06T01:56:09.036Z,98797.28
2023-02-06T01:57:11.900Z,98798.94
2023-02-06T01:58:16.191Z,98804.94
2023-02-06T01:59:18.194Z,98817.06
2023-02-06T02:00:20.411Z,98809.78
2023-02-06T02:01:23.040Z,98810.97
2023-02-06T02:02:26.390Z,98808.69
2023-02-06T02:03:29.145Z,98812.38
2023-02-06T02:04:32.587Z,98809.25
2023-02-06T02:05:35.262Z,98811.09
2023-02-06T02:06:37.384Z,98809.06
2023-02-06T02:07:44.442Z,98815.28
2023-02-06T02:08:47.346Z,98811.97
2023-02-06T02:09:49.237Z,98817.06
2023-02-06T02:10:51.206Z,98819.69
2023-02-06T02:11:53.035Z,98818.84
2023-02-06T02:12:54.829Z,98808.50
2023-02-06T02:13:57.014Z,98803.97
2023-02-06T02:14:59.556Z,98807.94
2023-02-06T02:16:04.423Z,98809.38
2023-02-06T02:17:24.965Z,98807.41
2023-02-06T02:18:29.606Z,98805.47
2023-02-06T02:19:50.008Z,98801.97
2023-02-06T02:21:01.347Z,98800.13
2023-02-06T02:22:21.619Z,98794.91
2023-02-06T02:23:38.464Z,98795.66
2023-02-06T02:24:40.300Z,98798.84
2023-02-06T02:26:00.799Z,98799.69
2023-02-06T02:27:25.994Z,98799.59
2023-02-06T02:28:40.191Z,98805.56
2023-02-06T02:29:41.982Z,98804.84
2023-02-06T02:30:55.034Z,98809.56
2023-02-06T02:32:15.259Z,98804.78
2023-02-06T02:33:26.422Z,98804.22
2023-02-06T02:34:46.920Z,98805.44
2023-02-06T02:35:51.494Z,98801.25
2023-02-06T02:37:00.899Z,98805.88
2023-02-06T02:38:11.922Z,98807.88
2023-02-06T02:39:18.075Z,98801.38
2023-02-06T02:40:27.922Z,98807.28
2023-02-06T02:41:38.744Z,98801.63
2023-02-06T02:42:40.506Z,98799.13
2023-02-06T02:43:54.144Z,98803.16
2023-02-06T02:45:00.680Z,98806.47
2023-02-06T02:46:02.470Z,98802.13
2023-02-06T02:47:07.615Z,98796.91
2023-02-06T02:48:13.067Z,98797.81
2023-02-06T02:49:19.976Z,98792.78
2023-02-06T02:50:21.887Z,98799.66
2023-02-06T02:51:24.536Z,98794.59
2023-02-06T02:52:26.501Z,98789.56
2023-02-06T02:53:28.411Z,98793.78
2023-02-06T02:54:30.923Z,98800.53
2023-02-06T02:55:32.807Z,98797.09
2023-02-06T02:56:35.537Z,98794.31
2023-02-06T02:57:37.424Z,98797.38
2023-02-06T02:58:39.324Z,98797.94
2023-02-06T02:59:46.180Z,98794.31
2023-02-06T03:01:08.635Z,98794.91
2023-02-06T03:02:13.363Z,98787.97
2023-02-06T03:03:17.195Z,98782.81
2023-02-06T03:04:23.333Z,98790.31
2023-02-06T03:05:26.036Z,98792.09
2023-02-06T03:07:04.042Z,98797.19
2023-02-06T03:08:05.839Z,98792.28
2023-02-06T03:09:28.633Z,98790.91
2023-02-06T03:10:36.483Z,98793.81
2023-02-06T03:11:42.088Z,98792.16
2023-02-06T03:12:46.467Z,98795.47
2023-02-06T03:13:48.396Z,98788.84
2023-02-06T03:14:52.833Z,98789.00
2023-02-06T03:15:54.634Z,98797.19
2023-02-06T03:17:03.714Z,98796.53
2023-02-06T03:18:25.803Z,98798.06
2023-02-06T03:19:33.692Z,98800.19
2023-02-06T03:20:37.476Z,98797.59
2023-02-06T03:21:40.450Z,98798.47
2023-02-06T03:22:44.381Z,98796.44
2023-02-06T03:23:48.638Z,98800.31
2023-02-06T03:24:51.391Z,98805.94
2023-02-06T03:25:56.174Z,98804.84
2023-02-06T03:27:03.894Z,98809.78
2023-02-06T03:28:09.811Z,98814.75
2023-02-06T03:29:13.102Z,98809.41
2023-02-06T03:30:16.858Z,98809.34
2023-02-06T03:31:25.442Z,98809.34
2023-02-06T03:32:30.001Z,98807.00
2023-02-06T03:33:35.555Z,98816.56
2023-02-06T03:34:57.155Z,98812.38
2023-02-06T03:35:59.347Z,98808.34
2023-02-06T03:37:01.257Z,98814.47
2023-02-06T03:38:04.393Z,98809.38
2023-02-06T03:39:06.337Z,98807.53
2023-02-06T03:41:12.564Z,98802.97
2023-02-06T03:42:16.002Z,98809.53
2023-02-06T03:43:19.463Z,98805.25
2023-02-06T03:44:24.228Z,98802.66
2023-02-06T03:45:31.748Z,98803.34
2023-02-06T03:46:36.243Z,98809.09
2023-02-06T03:47:38.667Z,98808.13
2023-02-06T03:48:42.082Z,98795.41
2023-02-06T03:49:46.134Z,98803.03
2023-02-06T03:50:50.562Z,98797.88
2023-02-06T03:51:57.144Z,98803.88
2023-02-06T03:53:00.371Z,98795.47
2023-02-06T03:54:04.657Z,98803.81
2023-02-06T03:55:12.889Z,98803.69
2023-02-06T03:56:20.523Z,98806.09
2023-02-06T03:57:24.253Z,98805.19
2023-02-06T03:58:26.195Z,98800.13
2023-02-06T03:59:28.233Z,98811.09
2023-02-06T04:00:31.853Z,98805.94
2023-02-06T04:01:33.981Z,98809.31
2023-02-06T04:02:36.960Z,98803.31
2023-02-06T04:03:38.755Z,98806.75
2023-02-06T04:04:41.620Z,98806.88
2023-02-06T04:05:43.488Z,98813.31
2023-02-06T04:06:45.289Z,98810.81
2023-02-06T04:07:47.553Z,98808.13
2023-02-06T04:08:49.417Z,98812.31
2023-02-06T04:09:51.383Z,98805.47
2023-02-06T04:10:53.237Z,98803.69
2023-02-06T04:11:55.097Z,98803.56
2023-02-06T04:12:57.166Z,98803.69
2023-02-06T04:13:58.993Z,98794.72
2023-02-06T04:15:00.896Z,98806.03
2023-02-06T04:16:03.415Z,98801.00
2023-02-06T04:17:05.391Z,98804.44
2023-02-06T04:18:07.264Z,98804.59
2023-02-06T04:19:09.096Z,98806.47
2023-02-06T04:20:11.166Z,98805.03
2023-02-06T04:21:13.007Z,98797.34
2023-02-06T04:22:16.179Z,98799.75
2023-02-06T04:23:19.187Z,98792.97
2023-02-06T04:24:21.349Z,98800.91
2023-02-06T04:25:23.254Z,98797.41
2023-02-06T04:26:25.040Z,98787.00
2023-02-06T04:27:26.898Z,98789.31
2023-02-06T04:28:28.754Z,98786.59
2023-02-06T04:29:31.420Z,98792.56
2023-02-06T04:30:33.432Z,98792.72
2023-02-06T04:31:35.434Z,98782.78
2023-02-06T04:32:37.434Z,98787.78
2023-02-06T04:33:39.352Z,98781.91
2023-02-06T04:34:41.191Z,98788.94
2023-02-06T04:35:43.056Z,98795.66
2023-02-06T04:36:44.863Z,98796.75
2023-02-06T04:37:46.699Z,98798.66
2023-02-06T04:38:48.578Z,98796.56
2023-02-06T04:39:50.410Z,98799.66
2023-02-06T04:40:52.351Z,98804.78
2023-02-06T04:41:54.587Z,98793.91
2023-02-06T04:42:56.462Z,98802.31
2023-02-06T04:43:58.452Z,98796.50
2023-02-06T04:45:00.321Z,98802.53
2023-02-06T04:46:02.404Z,98797.09
2023-02-06T04:47:04.886Z,98798.69
2023-02-06T04:48:06.817Z,98801.38
2023-02-06T04:49:08.825Z,98798.19
2023-02-06T04:50:10.926Z,98801.69
2023-02-06T04:51:12.924Z,98795.31
2023-02-06T04:52:14.886Z,98798.31
2023-02-06T04:53:16.936Z,98797.44
2023-02-06T04:54:18.869Z,98801.44
2023-02-06T04:55:20.768Z,98804.72
2023-02-06T04:56:22.715Z,98803.16
2023-02-06T04:57:25.800Z,98803.06
2023-02-06T04:58:27.695Z,98795.25
2023-02-06T04:59:29.767Z,98795.13
2023-02-06T05:00:31.606Z,98796.78
2023-02-06T05:01:33.885Z,98789.22
2023-02-06T05:02:39.963Z,98797.66
2023-02-06T05:03:42.158Z,98803.47
2023-02-06T05:04:44.056Z,98810.25
2023-02-06T05:05:45.885Z,98809.25
2023-02-06T05:06:47.717Z,98801.47
2023-02-06T05:07:49.627Z,98798.88
2023-02-06T05:08:51.497Z,98787.09
2023-02-06T05:09:53.370Z,98801.47
2023-02-06T05:10:55.500Z,98800.66
2023-02-06T05:11:57.349Z,98804.78
2023-02-06T05:12:59.287Z,98806.56
2023-02-06T05:14:01.338Z,98804.31
2023-02-06T05:15:03.312Z,98806.03
2023-02-06T05:16:09.640Z,98805.84
2023-02-06T05:17:11.628Z,98795.50
2023-02-06T05:18:14.307Z,98797.00
2023-02-06T05:19:16.269Z,98799.53
2023-02-06T05:20:19.371Z,98797.38
2023-02-06T05:21:21.875Z,98808.47
2023-02-06T05:22:23.731Z,98794.75
2023-02-06T05:23:25.606Z,98787.06
2023-02-06T05:24:27.563Z,98786.88
2023-02-06T05:25:29.914Z,98793.56
2023-02-06T05:26:32.316Z,98794.28
2023-02-06T05:27:34.085Z,98791.59
2023-02-06T05:28:35.980Z,98787.41
2023-02-06T05:29:38.150Z,98791.50
2023-02-06T05:30:40.040Z,98793.03
2023-02-06T05:31:41.957Z,98792.00
2023-02-06T05:32:44.247Z,98787.94
2023-02-06T05:33:47.400Z,98787.94
2023-02-06T05:34:49.252Z,98783.66
2023-02-06T05:35:51.102Z,98786.91
2023-02-06T05:36:52.975Z,98786.78
2023-02-06T05:37:54.922Z,98787.59
2023-02-06T05:38:56.747Z,98783.25
2023-02-06T05:40:00.058Z,98782.34
2023-02-06T05:41:01.969Z,98781.47
2023-02-06T05:42:04.145Z,98785.03
2023-02-06T05:43:06.025Z,98787.97
2023-02-06T05:44:07.894Z,98787.25
2023-02-06T05:45:09.848Z,98783.84
2023-02-06T05:46:13.239Z,98779.38
2023-02-06T05:47:15.184Z,98774.13
2023-02-06T05:48:17.193Z,98777.50
2023-02-06T05:49:18.990Z,98776.59
2023-02-06T05:50:21.548Z,98776.50
2023-02-06T05:51:23.423Z,98775.63
2023-02-06T05:52:25.267Z,98776.38
2023-02-06T05:53:27.149Z,98778.03
2023-02-06T05:54:29.033Z,98779.63
2023-02-06T05:55:30.962Z,98779.56
2023-02-06T05:56:32.861Z,98779.50
2023-02-06T05:57:35.288Z,98773.47
2023-02-06T05:58:37.196Z,98786.91
2023-02-06T05:59:39.043Z,98790.22
2023-02-06T06:00:41.027Z,98793.53
2023-02-06T06:01:42.899Z,98794.34
2023-02-06T06:02:44.722Z,98796.97
2023-02-06T06:03:46.668Z,98796.28
2023-02-06T06:04:48.641Z,98795.75
2023-02-06T06:05:50.606Z,98794.31
2023-02-06T06:06:52.661Z,98791.13
2023-02-06T06:07:54.502Z,98793.06
2023-02-06T06:08:56.359Z,98788.22
2023-02-06T06:09:58.191Z,98790.66
2023-02-06T06:11:02.155Z,98795.56
2023-02-06T06:12:04.289Z,98792.00
2023-02-06T06:13:06.520Z,98787.59
2023-02-06T06:14:08.767Z,98784.97
2023-02-06T06:15:10.685Z,98783.06
2023-02-06T06:16:12.629Z,98789.66
2023-02-06T06:17:14.876Z,98790.34
2023-02-06T06:18:16.795Z,98802.13
2023-02-06T06:19:18.857Z,98796.91
2023-02-06T06:20:20.770Z,98800.22
2023-02-06T06:21:23.236Z,98797.56
2023-02-06T06:22:25.153Z,98802.53
2023-02-06T06:23:27.149Z,98809.28
2023-02-06T06:24:28.972Z,98804.91
2023-02-06T06:25:30.826Z,98804.75
2023-02-06T06:26:32.873Z,98802.09
2023-02-06T06:27:34.796Z,98801.19
2023-02-06T06:28:39.300Z,98804.66
2023-02-06T06:29:41.235Z,98802.03
2023-02-06T06:30:43.211Z,98795.22
2023-02-06T06:31:45.356Z,98790.81
2023-02-06T06:32:47.141Z,98795.84
2023-02-06T06:33:48.956Z,98790.00
2023-02-06T06:34:50.777Z,98788.22
2023-02-06T06:35:52.765Z,98791.72
2023-02-06T06:36:54.799Z,98790.75
2023-02-06T06:37:56.669Z,98790.66
2023-02-06T06:38:58.487Z,98791.41
2023-02-06T06:40:00.483Z,98783.00
2023-02-06T06:41:02.393Z,98787.19
2023-02-06T06:42:04.894Z,98789.69
2023-02-06T06:43:06.753Z,98784.78
2023-02-06T06:44:08.577Z,98786.47
2023-02-06T06:45:10.575Z,98783.13
2023-02-06T06:46:12.549Z,98780.38
2023-02-06T06:47:14.588Z,98774.25
2023-02-06T06:48:16.552Z,98778.53
2023-02-06T06:49:18.491Z,98782.66
2023-02-06T06:50:20.344Z,98780.97
2023-02-06T06:51:22.304Z,98781.78
2023-02-06T06:52:25.639Z,98786.81
2023-02-06T06:53:27.702Z,98782.59
2023-02-06T06:54:29.550Z,98781.63
2023-02-06T06:55:31.772Z,98776.53
2023-02-06T06:56:33.698Z,98775.66
2023-02-06T06:57:35.670Z,98784.06
2023-02-06T06:58:37.591Z,98784.00
2023-02-06T06:59:43.413Z,98777.06
2023-02-06T07:00:45.365Z,98777.94
2023-02-06T07:01:49.170Z,98779.75
2023-02-06T07:02:51.479Z,98778.97
2023-02-06T07:03:53.402Z,98780.56
2023-02-06T07:04:55.725Z,98783.06
2023-02-06T07:05:57.657Z,98785.03
2023-02-06T07:06:59.513Z,98783.31
2023-02-06T07:08:01.580Z,98780.81
2023-02-06T07:09:03.769Z,98776.63
2023-02-06T07:10:06.989Z,98780.81
2023-02-06T07:11:09.954Z,98784.91
2023-02-06T07:12:11.872Z,98782.44
2023-02-06T07:13:15.755Z,98780.66
2023-02-06T07:14:17.741Z,98784.63
2023-02-06T07:15:20.215Z,98783.56
2023-02-06T07:16:22.128Z,98781.00
2023-02-06T07:17:24.076Z,98773.50
2023-02-06T07:18:25.964Z,98771.81
2023-02-06T07:19:28.034Z,98774.19
2023-02-06T07:20:29.916Z,98774.94
2023-02-06T07:21:31.878Z,98769.66
2023-02-06T07:22:33.819Z,98772.97
2023-02-06T07:23:38.685Z,98780.47
2023-02-06T07:24:40.684Z,98776.13
2023-02-06T07:25:42.513Z,98779.59
2023-02-06T07:26:45.185Z,98773.09
2023-02-06T07:27:47.885Z,98774.06
2023-02-06T07:28:50.373Z,98777.56
2023-02-06T07:29:52.169Z,98777.94
2023-02-06T07:30:54.143Z,98780.69
2023-02-06T07:31:56.112Z,98778.16
2023-02-06T07:32:57.998Z,98780.75
2023-02-06T07:34:00.465Z,98790.75
2023-02-06T07:35:02.436Z,98784.72
2023-02-06T07:36:04.489Z,98787.06
2023-02-06T07:37:06.462Z,98789.41
2023-02-06T07:38:08.278Z,98787.84
2023-02-06T07:39:10.198Z,98788.53
2023-02-06T07:40:12.437Z,98783.22
2023-02-06T07:41:14.325Z,98783.19
2023-02-06T07:42:16.358Z,98792.53
2023-02-06T07:43:18.248Z,98791.16
2023-02-06T07:44:20.184Z,98793.81
2023-02-06T07:45:22.274Z,98787.88
2023-02-06T07:46:24.198Z,98780.94
2023-02-06T07:47:26.445Z,98779.00
2023-02-06T07:48:28.836Z,98784.81
2023-02-06T07:49:30.836Z,98788.88
2023-02-06T07:50:32.796Z,98789.66
2023-02-06T07:51:34.714Z,98793.78
2023-02-06T07:52:36.824Z,98794.50
2023-02-06T07:53:38.998Z,98787.47
2023-02-06T07:54:41.030Z,98780.59
2023-02-06T07:55:42.940Z,98783.13
2023-02-06T07:56:44.757Z,98775.75
2023-02-06T07:57:46.640Z,98783.59
2023-02-06T07:58:52.624Z,98775.88
2023-02-06T07:59:54.626Z,98786.94
2023-02-06T08:00:56.525Z,98779.06
2023-02-06T08:01:58.526Z,98781.41
2023-02-06T08:03:01.017Z,98773.91
2023-02-06T08:04:03.030Z,98776.84
2023-02-06T08:05:05.191Z,98770.16
2023-02-06T08:06:11.185Z,98765.72
2023-02-06T08:07:15.239Z,98769.75
2023-02-06T08:08:17.116Z,98768.81
2023-02-06T08:09:18.937Z,98765.28
2023-02-06T08:10:20.809Z,98771.69
2023-02-06T08:11:25.471Z,98777.09
2023-02-06T08:12:29.958Z,98767.59
2023-02-06T08:13:31.864Z,98767.19
2023-02-06T08:14:33.719Z,98767.91
2023-02-06T08:15:36.020Z,98769.41
2023-02-06T08:16:39.429Z,98765.00
2023-02-06T08:17:43.078Z,98765.44
2023-02-06T08:18:45.339Z,98766.09
2023-02-06T08:19:47.748Z,98763.31
2023-02-06T08:20:49.700Z,98762.19
2023-02-06T08:21:51.847Z,98763.63
2023-02-06T08:22:54.259Z,98764.34
2023-02-06T08:23:56.993Z,98765.69
2023-02-06T08:24:58.783Z,98757.00
2023-02-06T08:26:04.697Z,98766.38
2023-02-06T08:27:07.499Z,98764.88
2023-02-06T08:28:10.386Z,98764.81
2023-02-06T08:29:12.760Z,98771.22
2023-02-06T08:30:14.657Z,98764.88
2023-02-06T08:31:18.364Z,98763.06
2023-02-06T08:32:20.262Z,98765.69
2023-02-06T08:33:22.105Z,98764.66
2023-02-06T08:34:23.973Z,98761.94
2023-02-06T08:35:25.841Z,98764.34
2023-02-06T08:36:28.431Z,98769.31
2023-02-06T08:37:31.570Z,98765.94
2023-02-06T08:38:33.457Z,98768.72
2023-02-06T08:39:35.461Z,98768.41
2023-02-06T08:40:37.312Z,98766.56
2023-02-06T08:41:40.327Z,98772.94
2023-02-06T08:42:42.240Z,98777.53
2023-02-06T08:43:45.122Z,98770.13
2023-02-06T08:44:46.998Z,98776.44
2023-02-06T08:45:49.702Z,98778.63
2023-02-06T08:47:01.535Z,98779.47
2023-02-06T08:48:11.677Z,98778.22
2023-02-06T08:49:17.078Z,98772.38
2023-02-06T08:50:18.989Z,98771.41
2023-02-06T08:51:22.602Z,98775.59
2023-02-06T08:52:24.555Z,98772.78
2023-02-06T08:53:26.450Z,98771.78
2023-02-06T08:54:28.402Z,98770.56
2023-02-06T08:55:30.413Z,98775.38
2023-02-06T08:56:33.201Z,98772.59
2023-02-06T08:57:35.611Z,98766.00
2023-02-06T08:58:38.174Z,98776.88
2023-02-06T08:59:40.064Z,98768.81
2023-02-06T09:00:41.996Z,98771.16
2023-02-06T09:01:45.801Z,98774.31
2023-02-06T09:02:47.870Z,98764.59
2023-02-06T09:03:49.752Z,98768.44
2023-02-06T09:04:51.540Z,98772.63
2023-02-06T09:06:05.594Z,98769.81
2023-02-06T09:07:11.198Z,98766.94
2023-02-06T09:08:13.611Z,98766.63
2023-02-06T09:09:16.161Z,98767.94
2023-02-06T09:10:27.004Z,98771.91
2023-02-06T09:11:33.159Z,98768.47
2023-02-06T09:12:34.931Z,98763.91
2023-02-06T09:13:37.525Z,98764.41
2023-02-06T09:14:39.523Z,98765.09
2023-02-06T09:15:43.433Z,98767.72
2023-02-06T09:16:45.418Z,98769.53
2023-02-06T09:17:47.416Z,98764.88
2023-02-06T09:18:52.200Z,98768.06
2023-02-06T09:19:55.252Z,98767.25
2023-02-06T09:21:04.063Z,98762.19
2023-02-06T09:22:07.176Z,98764.13
2023-02-06T09:23:09.187Z,98767.56
2023-02-06T09:24:11.192Z,98765.00
2023-02-06T09:25:13.137Z,98770.94
2023-02-06T09:26:16.979Z,98767.91
2023-02-06T09:27:18.915Z,98765.59
2023-02-06T09:28:20.893Z,98756.75
2023-02-06T09:29:22.792Z,98757.75
2023-02-06T09:30:24.757Z,98758.16
2023-02-06T09:31:27.691Z,98759.91
2023-02-06T09:32:29.549Z,98761.72
2023-02-06T09:33:31.409Z,98766.78
2023-02-06T09:34:33.447Z,98775.78
2023-02-06T09:35:35.728Z,98762.63
2023-02-06T09:36:37.992Z,98759.59
2023-02-06T09:37:39.925Z,98772.13
2023-02-06T09:38:43.194Z,98771.06
2023-02-06T09:39:45.149Z,98767.34
2023-02-06T09:40:47.060Z,98782.38
2023-02-06T09:41:53.381Z,98768.50
2023-02-06T09:42:55.968Z,98777.59
2023-02-06T09:43:57.905Z,98778.00
2023-02-06T09:45:06.494Z,98779.56
2023-02-06T09:46:13.581Z,98780.88
2023-02-06T09:47:21.306Z,98775.84
2023-02-06T09:48:25.605Z,98775.09
2023-02-06T09:49:39.660Z,98776.34
2023-02-06T09:50:51.801Z,98773.03
2023-02-06T09:51:53.739Z,98771.22
2023-02-06T09:53:01.688Z,98769.84
2023-02-06T09:54:15.100Z,98770.81
2023-02-06T09:55:31.978Z,98771.41
2023-02-06T09:56:45.795Z,98768.97
2023-02-06T09:57:59.955Z,98768.84
2023-02-06T09:59:18.482Z,98766.19
2023-02-06T10:00:20.287Z,98772.13
2023-02-06T10:01:30.055Z,98763.84
2023-02-06T10:02:39.947Z,98767.28
2023-02-06T10:03:47.686Z,98765.78
2023-02-06T10:04:56.676Z,98756.28
2023-02-06T10:06:01.329Z,98753.38
2023-02-06T10:07:03.128Z,98758.41
2023-02-06T10:08:10.972Z,98748.16
2023-02-06T10:09:19.321Z,98747.31
2023-02-06T10:10:24.280Z,98739.91
2023-02-06T10:11:38.012Z,98740.72
2023-02-06T10:12:43.249Z,98736.59
2023-02-06T10:13:50.014Z,98732.22
2023-02-06T10:14:55.937Z,98733.03
2023-02-06T10:16:12.729Z,98729.97
2023-02-06T10:17:23.584Z,98729.63
2023-02-06T10:18:44.392Z,98735.41
2023-02-06T10:20:04.502Z,98719.44
2023-02-06T10:21:29.486Z,98724.91
2023-02-06T10:22:39.267Z,98720.50
2023-02-06T10:23:47.444Z,98714.56
2023-02-06T10:24:49.540Z,98717.88
2023-02-06T10:26:04.882Z,98716.03
2023-02-06T10:27:10.942Z,98710.06
2023-02-06T10:28:12.810Z,98709.81
2023-02-06T10:29:30.723Z,98705.44
2023-02-06T10:30:52.885Z,98701.56
2023-02-06T10:32:02.921Z,98702.13
2023-02-06T10:33:25.379Z,98699.28
2023-02-06T10:34:57.108Z,98695.72
2023-02-06T10:36:17.608Z,98696.28
2023-02-06T10:37:19.545Z,98695.13
2023-02-06T10:38:40.102Z,98688.03
2023-02-06T10:39:57.010Z,98675.78
2023-02-06T10:41:09.366Z,98676.25
2023-02-06T10:42:17.461Z,98674.13
2023-02-06T10:43:34.415Z,98667.81
2023-02-06T10:44:54.886Z,98661.44
2023-02-06T10:46:05.836Z,98661.59
2023-02-06T10:47:26.367Z,98655.47
2023-02-06T10:48:47.054Z,98660.22
2023-02-06T10:49:52.875Z,98648.03
2023-02-06T10:50:59.024Z,98642.63
2023-02-06T10:52:02.835Z,98649.22
2023-02-06T10:53:06.776Z,98642.72
2023-02-06T10:54:30.523Z,98640.66
2023-02-06T10:55:39.022Z,98634.72
2023-02-06T10:56:44.975Z,98634.34
2023-02-06T10:57:48.282Z,98627.28
2023-02-06T10:59:01.675Z,98627.19
2023-02-06T11:00:04.735Z,98630.50
2023-02-06T11:01:23.589Z,98624.91
2023-02-06T11:03:06.226Z,98616.59
2023-02-06T11:04:17.967Z,98612.19
2023-02-06T11:05:22.113Z,98618.34
2023-02-06T11:06:26.115Z,98615.16
2023-02-06T11:07:33.397Z,98610.38
2023-02-06T11:08:44.529Z,98609.91
2023-02-06T11:09:46.521Z,98615.41
2023-02-06T11:10:48.386Z,98613.66
2023-02-06T11:11:51.666Z,98617.88
2023-02-06T11:13:05.660Z,98606.41
2023-02-06T11:14:10.515Z,98607.63
2023-02-06T11:15:33.247Z,98608.06
2023-02-06T11:16:37.798Z,98609.97
2023-02-06T11:17:39.793Z,98605.16
2023-02-06T11:18:43.734Z,98604.44
2023-02-06T11:19:45.794Z,98599.19
2023-02-06T11:20:49.736Z,98600.66
2023-02-06T11:21:56.356Z,98599.00
2023-02-06T11:23:13.950Z,98592.81
2023-02-06T11:24:17.061Z,98592.94
2023-02-06T11:25:25.110Z,98588.03
2023-02-06T11:26:26.996Z,98585.34
2023-02-06T11:27:29.271Z,98580.19
2023-02-06T11:28:31.597Z,98570.53
2023-02-06T11:29:37.379Z,98571.88
2023-02-06T11:30:41.253Z,98573.84
2023-02-06T11:31:45.233Z,98578.91
2023-02-06T11:33:02.659Z,98567.53
2023-02-06T11:34:05.944Z,98567.41
2023-02-06T11:35:26.670Z,98556.94
2023-02-06T11:36:28.765Z,98556.16
2023-02-06T11:37:38.574Z,98563.38
2023-02-06T11:38:54.142Z,98558.94
2023-02-06T11:40:13.932Z,98559.94
2023-02-06T11:41:19.063Z,98561.88
2023-02-06T11:42:22.320Z,98559.38
2023-02-06T11:43:26.114Z,98555.06
2023-02-06T11:44:29.400Z,98560.00
2023-02-06T11:45:33.189Z,98564.00
2023-02-06T11:46:36.703Z,98549.75
2023-02-06T11:47:38.723Z,98551.84
2023-02-06T11:48:43.672Z,98549.44
2023-02-06T11:49:45.584Z,98554.06
2023-02-06T11:50:53.973Z,98552.16
2023-02-06T11:52:04.032Z,98549.34
2023-02-06T11:53:15.538Z,98545.72
2023-02-06T11:54:28.512Z,98545.84
2023-02-06T11:55:32.090Z,98539.31
2023-02-06T11:56:33.975Z,98541.78
2023-02-06T11:57:35.863Z,98542.84
2023-02-06T11:58:37.947Z,98541.78
2023-02-06T11:59:50.375Z,98533.75
2023-02-06T12:00:52.277Z,98537.03
2023-02-06T12:01:54.624Z,98521.91
2023-02-06T12:02:56.872Z,98528.31
2023-02-06T12:03:59.872Z,98527.13
2023-02-06T12:05:07.816Z,98525.22
2023-02-06T12:06:36.087Z,98532.09
2023-02-06T12:07:40.204Z,98530.25
2023-02-06T12:08:47.851Z,98523.97
2023-02-06T12:09:49.800Z,98520.97
2023-02-06T12:10:54.728Z,98525.56
2023-02-06T12:12:19.911Z,98523.13
2023-02-06T12:13:24.691Z,98527.56
2023-02-06T12:14:32.639Z,98525.69
2023-02-06T12:15:48.042Z,98519.41
2023-02-06T12:16:51.297Z,98520.22
2023-02-06T12:18:01.842Z,98526.16
2023-02-06T12:19:11.001Z,98521.84
2023-02-06T12:20:20.980Z,98514.00
2023-02-06T12:21:27.317Z,98519.16
2023-02-06T12:22:31.986Z,98514.63
2023-02-06T12:23:42.928Z,98504.66
2023-02-06T12:24:46.691Z,98519.59
2023-02-06T12:25:49.839Z,98513.25
2023-02-06T12:26:53.750Z,98506.50
2023-02-06T12:27:57.362Z,98512.06
2023-02-06T12:29:02.707Z,98504.13
2023-02-06T12:30:09.334Z,98508.22
2023-02-06T12:31:16.585Z,98503.59
2023-02-06T12:32:21.650Z,98504.19
2023-02-06T12:33:33.777Z,98499.66
2023-02-06T12:34:54.292Z,98500.38
2023-02-06T12:35:59.689Z,98503.78
2023-02-06T12:37:14.653Z,98502.53
2023-02-06T12:38:16.546Z,98509.09
2023-02-06T12:39:23.131Z,98498.66